createdAt,value
2023-05-02T00:01:27.694Z,10.10
2023-05-02T00:05:35.818Z,10.80
2023-05-02T00:09:44.477Z,10.90
2023-05-02T00:13:52.202Z,10.70
2023-05-02T00:18:01.729Z,10.20
2023-05-02T00:22:09.690Z,10.70
2023-05-02T00:26:17.256Z,15.70
2023-05-02T00:30:25.144Z,11.60
2023-05-02T00:34:34.185Z,13.60
2023-05-02T00:38:42.156Z,12.30
2023-05-02T00:42:50.519Z,12.50
2023-05-02T00:46:59.004Z,11.60
2023-05-02T00:51:08.973Z,9.20
2023-05-02T00:55:17.901Z,10.90
2023-05-02T00:59:25.875Z,12.30
2023-05-02T01:03:41.868Z,12.90
2023-05-02T01:08:05.286Z,14.50
2023-05-02T01:12:26.125Z,12.20
2023-05-02T01:16:35.809Z,12.30
2023-05-02T01:20:46.293Z,11.40
2023-05-02T01:25:00.484Z,13.00
2023-05-02T01:29:10.208Z,11.30
2023-05-02T01:33:19.537Z,12.40
2023-05-02T01:37:29.336Z,11.50
2023-05-02T01:41:38.208Z,10.40
2023-05-02T01:45:47.387Z,10.90
2023-05-02T01:49:55.741Z,11.20
2023-05-02T01:54:06.633Z,12.00
2023-05-02T01:58:14.637Z,12.20
2023-05-02T02:02:23.433Z,12.10
2023-05-02T02:06:32.456Z,13.00
2023-05-02T02:10:47.752Z,13.20
2023-05-02T02:15:01.858Z,12.00
2023-05-02T02:19:12.535Z,12.80
2023-05-02T02:23:22.309Z,14.10
2023-05-02T02:27:29.988Z,10.80
2023-05-02T02:31:39.397Z,11.00
2023-05-02T02:35:53.037Z,9.30
2023-05-02T02:40:05.564Z,9.70
2023-05-02T02:44:28.786Z,9.60
2023-05-02T02:48:41.304Z,9.10
2023-05-02T02:52:59.037Z,8.80
2023-05-02T02:57:13.573Z,8.80
2023-05-02T03:01:24.599Z,9.40
2023-05-02T03:05:32.894Z,10.50
2023-05-02T03:09:47.452Z,11.00
2023-05-02T03:13:55.292Z,8.70
2023-05-02T03:18:03.535Z,9.20
2023-05-02T03:22:12.137Z,11.70
2023-05-02T03:26:22.490Z,10.80
2023-05-02T03:30:30.171Z,8.80
2023-05-02T03:34:37.759Z,11.00
2023-05-02T03:38:46.051Z,10.10
2023-05-02T03:42:53.992Z,9.50
2023-05-02T03:47:03.568Z,9.60
2023-05-02T03:51:11.711Z,10.80
2023-05-02T03:55:22.594Z,11.60
2023-05-02T03:59:30.780Z,11.70
2023-05-02T04:03:39.260Z,9.20
2023-05-02T04:07:47.422Z,10.90
2023-05-02T04:11:55.650Z,10.80
2023-05-02T04:16:04.580Z,11.10
2023-05-02T04:20:15.933Z,10.70
2023-05-02T04:24:23.784Z,10.60
2023-05-02T04:28:36.193Z,10.50
2023-05-02T04:32:44.053Z,9.90
2023-05-02T04:36:51.857Z,9.50
2023-05-02T04:40:59.600Z,10.80
2023-05-02T04:45:18.465Z,10.10
2023-05-02T04:49:26.985Z,10.60
2023-05-02T04:53:35.556Z,9.30
2023-05-02T04:57:43.498Z,10.30
2023-05-02T05:01:51.329Z,12.40
2023-05-02T05:05:59.627Z,14.70
2023-05-02T05:10:08.685Z,13.00
2023-05-02T05:14:16.254Z,14.20
2023-05-02T05:18:24.022Z,15.00
2023-05-02T05:22:32.007Z,13.70
2023-05-02T05:26:40.716Z,12.40
2023-05-02T05:30:48.554Z,11.90
2023-05-02T05:34:57.007Z,10.90
2023-05-02T05:39:04.719Z,12.30
2023-05-02T05:43:14.081Z,10.40
2023-05-02T05:47:24.874Z,12.80
2023-05-02T05:51:33.214Z,12.00
2023-05-02T05:55:42.340Z,12.20
2023-05-02T05:59:50.400Z,10.60
2023-05-02T06:03:59.268Z,11.10
2023-05-02T06:08:11.321Z,11.90
2023-05-02T06:12:19.760Z,11.50
2023-05-02T06:16:27.530Z,10.60
2023-05-02T06:20:38.920Z,11.60
2023-05-02T06:24:46.691Z,10.30
2023-05-02T06:28:54.053Z,11.00
2023-05-02T06:33:03.245Z,11.80
2023-05-02T06:37:11.653Z,10.50
2023-05-02T06:41:21.036Z,12.30
2023-05-02T06:45:30.004Z,11.10
2023-05-02T06:49:38.943Z,10.90
2023-05-02T06:53:47.070Z,11.20
2023-05-02T06:57:55.604Z,10.40
2023-05-02T07:02:05.185Z,10.20
2023-05-02T07:06:14.339Z,11.10
2023-05-02T07:10:22.589Z,12.80
2023-05-02T07:14:30.750Z,9.40
2023-05-02T07:18:39.027Z,11.50
2023-05-02T07:22:47.049Z,11.50
2023-05-02T07:26:55.252Z,11.70
2023-05-02T07:31:03.655Z,10.30
2023-05-02T07:35:12.204Z,12.80
2023-05-02T07:39:20.654Z,11.20
2023-05-02T07:43:28.443Z,13.40
2023-05-02T07:47:38.970Z,12.10
2023-05-02T07:51:46.670Z,11.90
2023-05-02T07:55:55.020Z,12.80
2023-05-02T08:00:03.274Z,12.30
2023-05-02T08:04:13.386Z,11.70
2023-05-02T08:08:23.341Z,13.10
2023-05-02T08:12:32.409Z,11.20
2023-05-02T08:16:40.564Z,13.00
2023-05-02T08:20:48.826Z,14.80
2023-05-02T08:24:58.607Z,13.00
2023-05-02T08:29:06.708Z,13.10
2023-05-02T08:33:14.298Z,11.80
2023-05-02T08:37:22.235Z,13.50
2023-05-02T08:41:32.345Z,13.00
2023-05-02T08:45:42.688Z,11.20
2023-05-02T08:49:52.132Z,11.00
2023-05-02T08:54:00.466Z,13.40
2023-05-02T08:58:08.297Z,12.00
2023-05-02T09:02:25.852Z,11.90
2023-05-02T09:06:35.489Z,12.20
2023-05-02T09:10:46.596Z,13.80
2023-05-02T09:15:12.366Z,12.90
2023-05-02T09:19:28.254Z,11.40
2023-05-02T09:23:43.665Z,12.00
2023-05-02T09:27:56.136Z,10.50
2023-05-02T09:32:05.663Z,13.00
2023-05-02T09:36:16.154Z,12.00
2023-05-02T09:40:25.272Z,14.10
2023-05-02T09:44:40.769Z,15.80
2023-05-02T09:48:57.361Z,11.60
2023-05-02T09:53:11.941Z,16.30
2023-05-02T09:57:20.906Z,11.60
2023-05-02T10:01:29.125Z,11.90
2023-05-02T10:05:39.677Z,11.40
2023-05-02T10:09:48.085Z,10.70
2023-05-02T10:13:56.186Z,13.40
2023-05-02T10:18:11.307Z,12.90
2023-05-02T10:22:23.981Z,14.30
2023-05-02T10:26:34.143Z,12.00
2023-05-02T10:30:42.978Z,10.90
2023-05-02T10:34:53.437Z,12.10
2023-05-02T10:39:01.122Z,11.70
2023-05-02T10:43:10.470Z,12.50
2023-05-02T10:47:25.421Z,13.00
2023-05-02T10:51:33.906Z,12.20
2023-05-02T10:55:41.207Z,11.40
2023-05-02T10:59:49.749Z,11.10
2023-05-02T11:04:01.475Z,12.10
2023-05-02T11:08:33.149Z,11.80
2023-05-02T11:12:49.219Z,11.50
2023-05-02T11:17:13.695Z,11.10
2023-05-02T11:21:32.156Z,12.60
2023-05-02T11:25:41.712Z,12.30
2023-05-02T11:30:00.238Z,11.90
2023-05-02T11:34:11.919Z,10.60
2023-05-02T11:38:22.722Z,12.10
2023-05-02T11:42:35.105Z,10.70
2023-05-02T11:46:43.412Z,13.90
2023-05-02T11:50:52.976Z,11.60
2023-05-02T11:55:00.427Z,12.60
2023-05-02T11:59:09.185Z,14.80
2023-05-02T12:03:28.095Z,10.50
2023-05-02T12:07:40.512Z,12.70
2023-05-02T12:11:48.372Z,12.50
2023-05-02T12:15:57.193Z,11.10
2023-05-02T12:20:07.210Z,10.70
2023-05-02T12:24:15.253Z,12.50
2023-05-02T12:28:24.781Z,10.80
2023-05-02T12:32:34.077Z,10.80
2023-05-02T12:36:48.829Z,11.00
2023-05-02T12:40:57.984Z,9.40
2023-05-02T12:45:06.569Z,11.10
2023-05-02T12:49:14.894Z,10.10
2023-05-02T12:53:41.717Z,8.10
2023-05-02T12:57:49.757Z,7.20
2023-05-02T13:01:58.708Z,8.80
2023-05-02T13:06:07.438Z,6.90
2023-05-02T13:10:18.335Z,7.50
2023-05-02T13:14:26.718Z,7.60
2023-05-02T13:18:34.586Z,9.40
2023-05-02T13:22:42.964Z,8.20
2023-05-02T13:26:50.820Z,10.90
2023-05-02T13:31:00.241Z,8.00
2023-05-02T13:35:10.103Z,11.40
2023-05-02T13:39:19.138Z,7.80
2023-05-02T13:43:27.766Z,9.60
2023-05-02T13:47:39.382Z,8.50
2023-05-02T13:51:48.261Z,9.00
2023-05-02T13:55:56.250Z,10.70
2023-05-02T14:00:04.747Z,9.30
2023-05-02T14:04:13.214Z,8.00
2023-05-02T14:08:21.100Z,7.70
2023-05-02T14:12:28.680Z,7.50
2023-05-02T14:16:36.670Z,7.90
2023-05-02T14:20:46.660Z,9.30
2023-05-02T14:24:54.852Z,9.60
2023-05-02T14:29:03.261Z,8.10
2023-05-02T14:33:11.070Z,7.60
2023-05-02T14:37:19.036Z,9.50
2023-05-02T14:41:29.843Z,7.30
2023-05-02T14:45:38.141Z,7.40
2023-05-02T14:49:47.803Z,10.40
2023-05-02T14:53:57.314Z,8.90
2023-05-02T14:58:04.933Z,7.70
2023-05-02T15:02:12.787Z,8.60
2023-05-02T15:06:21.505Z,9.20
2023-05-02T15:10:29.467Z,6.70
2023-05-02T15:14:38.179Z,8.00
2023-05-02T15:18:45.729Z,7.80
2023-05-02T15:22:53.706Z,9.70
2023-05-02T15:27:02.036Z,8.90
2023-05-02T15:31:09.736Z,9.00
2023-05-02T15:35:17.784Z,9.10
2023-05-02T15:39:28.034Z,8.70
2023-05-02T15:43:36.284Z,7.10
2023-05-02T15:47:44.434Z,7.80
2023-05-02T15:51:52.664Z,8.60
2023-05-02T15:56:00.575Z,8.20
2023-05-02T16:00:17.021Z,10.40
2023-05-02T16:04:26.308Z,9.70
2023-05-02T16:08:34.298Z,8.10
2023-05-02T16:12:42.398Z,8.90
2023-05-02T16:16:50.486Z,13.30
2023-05-02T16:20:59.481Z,12.40
2023-05-02T16:25:08.356Z,9.00
2023-05-02T16:29:16.777Z,9.40
2023-05-02T16:33:25.934Z,11.20
2023-05-02T16:37:37.639Z,11.20
2023-05-02T16:41:45.343Z,10.30
2023-05-02T16:46:02.703Z,10.20
2023-05-02T16:50:12.418Z,8.60
2023-05-02T16:54:19.443Z,9.70
2023-05-02T16:58:28.972Z,8.40
2023-05-02T17:02:37.697Z,9.70
2023-05-02T17:06:45.944Z,8.80
2023-05-02T17:10:53.597Z,11.60
2023-05-02T17:15:04.412Z,9.10
2023-05-02T17:19:13.362Z,8.60
2023-05-02T17:23:22.455Z,9.80
2023-05-02T17:27:30.181Z,9.70
2023-05-02T17:31:39.197Z,11.20
2023-05-02T17:35:47.500Z,11.30
2023-05-02T17:39:55.201Z,10.30
2023-05-02T17:44:03.177Z,10.40
2023-05-02T17:48:11.733Z,9.60
2023-05-02T17:52:21.579Z,10.80
2023-05-02T17:56:30.705Z,12.20
2023-05-02T18:00:41.624Z,10.80
2023-05-02T18:04:50.738Z,12.40
2023-05-02T18:08:58.572Z,11.30
2023-05-02T18:13:06.604Z,11.70
2023-05-02T18:17:14.338Z,11.20
2023-05-02T18:21:26.200Z,9.40
2023-05-02T18:25:37.597Z,9.80
2023-05-02T18:29:45.506Z,9.90
2023-05-02T18:33:54.678Z,10.20
2023-05-02T18:38:03.798Z,11.40
2023-05-02T18:42:13.307Z,11.50
2023-05-02T18:46:21.288Z,11.70
2023-05-02T18:50:29.311Z,11.30
2023-05-02T18:54:37.354Z,9.40
2023-05-02T18:58:46.161Z,10.10
2023-05-02T19:02:57.335Z,10.00
2023-05-02T19:07:05.678Z,11.20
2023-05-02T19:11:14.578Z,9.30
2023-05-02T19:15:23.940Z,9.90
2023-05-02T19:19:32.954Z,10.70
2023-05-02T19:23:43.232Z,9.00
2023-05-02T19:27:52.137Z,9.20
2023-05-02T19:32:01.748Z,13.10
2023-05-02T19:36:12.377Z,11.30
2023-05-02T19:40:20.960Z,15.30
2023-05-02T19:44:28.565Z,13.80
2023-05-02T19:48:38.040Z,15.80
2023-05-02T19:52:45.965Z,17.50
2023-05-02T19:56:53.916Z,12.50
2023-05-02T20:01:03.842Z,9.60
2023-05-02T20:05:13.620Z,9.40
2023-05-02T20:09:21.530Z,8.70
2023-05-02T20:13:29.235Z,9.50
2023-05-02T20:17:38.126Z,9.10
2023-05-02T20:21:45.969Z,8.20
2023-05-02T20:25:53.535Z,8.70
2023-05-02T20:30:01.694Z,8.00
2023-05-02T20:34:12.317Z,9.00
2023-05-02T20:38:20.655Z,8.10
2023-05-02T20:42:29.130Z,7.40
2023-05-02T20:46:37.733Z,9.30
2023-05-02T20:50:54.869Z,8.70
2023-05-02T20:55:04.587Z,9.20
2023-05-02T20:59:13.967Z,9.50
2023-05-02T21:03:22.446Z,8.60
2023-05-02T21:07:30.989Z,7.40
2023-05-02T21:11:38.673Z,8.90
2023-05-02T21:15:49.560Z,8.50
2023-05-02T21:20:00.489Z,9.80
2023-05-02T21:24:10.882Z,9.00
2023-05-02T21:28:18.690Z,8.80
2023-05-02T21:32:26.452Z,9.30
2023-05-02T21:36:35.024Z,8.60
2023-05-02T21:40:43.103Z,8.40
2023-05-02T21:44:50.728Z,10.40
2023-05-02T21:48:58.944Z,8.80
2023-05-02T21:53:06.470Z,9.20
2023-05-02T21:57:13.955Z,9.00
2023-05-02T22:01:21.751Z,10.30
2023-05-02T22:05:29.775Z,9.40
2023-05-02T22:09:37.751Z,9.10
2023-05-02T22:13:45.602Z,11.50
2023-05-02T22:17:55.872Z,9.40
2023-05-02T22:22:06.766Z,9.90
2023-05-02T22:26:15.050Z,8.00
2023-05-02T22:30:23.974Z,10.30
2023-05-02T22:34:32.081Z,8.40
2023-05-02T22:38:40.348Z,9.80
2023-05-02T22:42:48.708Z,12.60
2023-05-02T22:47:01.027Z,9.20
2023-05-02T22:51:10.079Z,9.40
2023-05-02T22:55:18.646Z,8.10
2023-05-02T22:59:27.681Z,11.70
2023-05-02T23:03:37.287Z,10.60
2023-05-02T23:07:44.883Z,13.30
2023-05-02T23:11:52.870Z,10.50
2023-05-02T23:16:04.241Z,10.90
2023-05-02T23:20:14.394Z,10.40
2023-05-02T23:24:22.817Z,10.10
2023-05-02T23:28:31.065Z,13.30
2023-05-02T23:32:39.551Z,12.90
2023-05-02T23:36:47.226Z,10.90
2023-05-02T23:40:55.968Z,10.20
2023-05-02T23:45:03.787Z,11.00
2023-05-02T23:49:11.252Z,13.80
2023-05-02T23:53:19.484Z,12.80
2023-05-02T23:57:28.153Z,10.70
